Time;durP1;ratioP1;P1;durP2;ratioP2;P2;SDS_P1;SDS_P2;PMS_P1;PMS_P2;Temp;Humidity;BMP_temperature;BMP_pressure;BME280_temperature;BME280_humidity;BME280_pressure;Samples;Min_cycle;Max_cycle;Signal;HPM_P1;HPM_P2
2022/01/09 00:00:44;;;;;;;7.32;4.50;;;4.90;99.90;;;;;;5053415;28;20017;-54
2022/01/09 00:03:10;;;;;;;7.05;3.63;;;4.90;99.90;;;;;;5053649;28;20108;-53
2022/01/09 00:05:39;;;;;;;4.80;3.75;;;4.90;99.90;;;;;;5053363;28;20132;-54
2022/01/09 00:08:05;;;;;;;5.30;3.78;;;4.90;99.90;;;;;;5053716;28;20051;-55
2022/01/09 00:10:32;;;;;;;6.15;4.20;;;4.80;99.90;;;;;;5053052;28;20049;-51
2022/01/09 00:12:58;;;;;;;4.15;3.50;;;4.90;99.90;;;;;;5052293;28;20056;-52
2022/01/09 00:15:24;;;;;;;4.35;3.75;;;4.90;99.90;;;;;;5033110;28;20142;-51
2022/01/09 00:17:50;;;;;;;4.97;3.80;;;4.80;99.90;;;;;;5040957;28;20059;-52
2022/01/09 00:20:15;;;;;;;5.03;4.30;;;4.90;99.90;;;;;;5046292;28;20017;-53
2022/01/09 00:22:47;;;;;;;4.38;3.67;;;4.90;99.90;;;;;;5045021;28;20021;-51
2022/01/09 00:25:15;;;;;;;5.38;3.50;;;4.90;99.90;;;;;;5035777;28;20462;-53
2022/01/09 00:27:41;;;;;;;4.40;3.33;;;4.90;99.90;;;;;;5032063;28;20034;-52
2022/01/09 00:30:09;;;;;;;4.60;3.30;;;4.90;99.90;;;;;;5032717;28;20443;-52
2022/01/09 00:32:34;;;;;;;4.03;3.60;;;5.00;99.90;;;;;;5036839;28;20136;-55
2022/01/09 00:35:00;;;;;;;4.93;3.78;;;4.90;99.90;;;;;;5036805;28;20025;-52
2022/01/09 00:37:26;;;;;;;7.32;3.38;;;4.90;99.90;;;;;;5019031;28;20108;-52
2022/01/09 00:39:54;;;;;;;5.35;3.45;;;5.00;99.90;;;;;;5036843;28;20033;-52
2022/01/09 00:42:20;;;;;;;4.70;3.67;;;5.00;99.90;;;;;;5036692;28;20087;-51
2022/01/09 00:44:46;;;;;;;4.57;3.05;;;4.90;99.90;;;;;;5036792;28;20410;-54
2022/01/09 00:47:12;;;;;;;5.00;3.60;;;5.00;99.90;;;;;;5036697;28;20037;-55
2022/01/09 00:49:37;;;;;;;3.83;3.22;;;5.00;99.90;;;;;;5036691;28;20087;-52
2022/01/09 00:52:03;;;;;;;3.78;3.40;;;5.00;99.90;;;;;;5037910;28;20022;-51
2022/01/09 00:54:28;;;;;;;5.90;3.70;;;5.00;99.90;;;;;;5037537;28;20476;-52
2022/01/09 00:56:54;;;;;;;8.13;3.53;;;5.00;99.90;;;;;;5036609;28;20390;-55
2022/01/09 00:59:20;;;;;;;4.53;3.95;;;5.00;99.90;;;;;;5038036;28;20029;-54
2022/01/09 01:01:45;;;;;;;4.45;3.80;;;5.00;99.90;;;;;;5037116;28;20033;-54
2022/01/09 01:04:11;;;;;;;5.18;3.67;;;5.00;99.90;;;;;;5038116;28;20026;-55
2022/01/09 01:06:36;;;;;;;5.30;4.20;;;5.00;99.90;;;;;;5034716;28;20080;-52
2022/01/09 01:09:03;;;;;;;4.45;3.28;;;5.00;99.90;;;;;;5037018;28;20033;-55
2022/01/09 01:11:28;;;;;;;4.10;3.40;;;4.90;99.90;;;;;;5035344;28;20053;-50
2022/01/09 01:13:54;;;;;;;4.15;3.50;;;4.90;99.90;;;;;;5035241;28;20099;-49
2022/01/09 01:16:19;;;;;;;3.92;3.10;;;5.00;99.90;;;;;;5035102;28;20040;-49
2022/01/09 01:18:46;;;;;;;3.45;3.13;;;4.90;99.90;;;;;;5035146;28;20032;-51
2022/01/09 01:21:12;;;;;;;5.47;3.60;;;4.90;99.90;;;;;;5035064;28;20116;-49
2022/01/09 01:23:39;;;;;;;6.13;3.53;;;4.90;99.90;;;;;;5034595;28;20025;-49
2022/01/09 01:26:04;;;;;;;4.38;3.00;;;5.00;99.90;;;;;;5034896;28;20025;-50
2022/01/09 01:28:31;;;;;;;4.45;2.83;;;5.00;99.90;;;;;;5016920;28;20026;-49
2022/01/09 01:30:57;;;;;;;3.60;2.75;;;5.00;99.90;;;;;;5034619;28;20079;-50
2022/01/09 01:33:23;;;;;;;5.18;3.25;;;5.00;99.90;;;;;;5034495;28;20335;-48
2022/01/09 01:35:49;;;;;;;5.90;3.38;;;5.00;99.90;;;;;;5034583;28;20040;-50
2022/01/09 01:38:14;;;;;;;5.50;3.50;;;5.00;99.90;;;;;;5034763;28;20072;-48
2022/01/09 01:40:40;;;;;;;3.53;2.88;;;5.00;99.90;;;;;;5034544;28;20033;-50
2022/01/09 01:43:06;;;;;;;3.55;3.15;;;5.00;99.90;;;;;;5033756;28;20021;-50
2022/01/09 01:45:32;;;;;;;2.90;2.70;;;5.00;99.90;;;;;;5034301;28;20026;-49
2022/01/09 01:48:05;;;;;;;3.15;2.80;;;5.10;99.90;;;;;;5034321;28;20026;-49
2022/01/09 01:52:59;;;;;;;7.45;3.28;;;5.00;99.90;;;;;;5052124;28;20059;-58
2022/01/09 01:55:24;;;;;;;4.43;2.95;;;5.00;99.90;;;;;;5054936;28;20025;-54
2022/01/09 01:57:50;;;;;;;3.67;2.97;;;4.90;99.90;;;;;;5055299;28;20112;-58
2022/01/09 02:00:17;;;;;;;4.03;3.05;;;5.00;99.90;;;;;;5054967;28;20083;-59
2022/01/09 02:02:43;;;;;;;3.95;2.83;;;5.00;99.90;;;;;;5055927;28;20040;-56
2022/01/09 02:05:09;;;;;;;3.60;3.17;;;5.00;99.90;;;;;;5055660;28;20489;-59
2022/01/09 02:07:37;;;;;;;3.72;3.13;;;4.90;99.90;;;;;;5056075;28;20075;-57
2022/01/09 02:10:07;;;;;;;4.93;3.13;;;4.90;99.90;;;;;;5056592;28;20100;-58
2022/01/09 02:12:36;;;;;;;3.75;2.90;;;4.90;99.90;;;;;;5057145;28;20021;-59
2022/01/09 02:15:02;;;;;;;3.30;3.00;;;4.90;99.90;;;;;;5055746;28;20490;-57
2022/01/09 02:17:28;;;;;;;3.45;3.10;;;4.90;99.90;;;;;;5055841;28;20032;-57
2022/01/09 02:19:57;;;;;;;3.90;2.53;;;4.90;99.90;;;;;;5057810;28;20037;-57
2022/01/09 02:22:26;;;;;;;4.43;3.08;;;4.90;99.90;;;;;;5056800;28;20444;-57
2022/01/09 02:24:52;;;;;;;2.70;2.50;;;4.80;99.90;;;;;;5056021;28;20031;-59
2022/01/09 02:27:18;;;;;;;3.25;2.90;;;4.90;99.90;;;;;;5056285;28;20055;-60
2022/01/09 02:29:47;;;;;;;4.03;2.90;;;4.90;99.90;;;;;;5057560;28;20036;-58
2022/01/09 02:32:13;;;;;;;2.67;2.45;;;4.80;99.90;;;;;;5060325;28;20025;-55
2022/01/09 02:34:38;;;;;;;3.50;2.88;;;4.90;99.90;;;;;;5060924;28;20056;-57
2022/01/09 02:37:04;;;;;;;4.20;2.78;;;4.80;99.90;;;;;;5057279;28;20033;-56
2022/01/09 02:39:29;;;;;;;3.75;2.75;;;4.80;99.90;;;;;;5056728;28;20025;-56
2022/01/09 02:41:55;;;;;;;5.28;3.40;;;4.80;99.90;;;;;;5057871;28;20039;-58
2022/01/09 02:44:21;;;;;;;3.45;3.05;;;4.80;99.90;;;;;;5056950;28;20021;-58
2022/01/09 02:46:59;;;;;;;3.60;3.28;;;4.80;99.90;;;;;;5055728;28;20107;-56
2022/01/09 02:49:27;;;;;;;4.75;3.00;;;4.70;99.90;;;;;;5055704;28;20501;-56
2022/01/09 02:51:52;;;;;;;3.22;2.92;;;4.70;99.90;;;;;;5055484;28;20435;-56
2022/01/09 02:57:02;;;;;;;3.88;2.97;;;4.60;99.90;;;;;;5055122;28;20112;-57
2022/01/09 02:59:28;;;;;;;3.60;3.28;;;4.60;99.90;;;;;;5054734;28;20462;-58
2022/01/09 03:01:53;;;;;;;3.42;3.13;;;4.60;99.90;;;;;;5054552;28;20033;-57
2022/01/09 03:04:19;;;;;;;3.55;2.88;;;4.60;99.90;;;;;;5054002;28;20481;-56
2022/01/09 03:06:44;;;;;;;3.80;2.97;;;4.60;99.90;;;;;;5054017;28;20067;-56
2022/01/09 03:09:10;;;;;;;4.90;3.28;;;4.60;99.90;;;;;;5053590;28;20501;-57
2022/01/09 03:11:37;;;;;;;4.13;3.35;;;4.60;99.90;;;;;;5053664;28;20024;-56
2022/01/09 03:14:03;;;;;;;4.43;2.92;;;4.60;99.90;;;;;;5053697;28;20120;-57
2022/01/09 03:16:29;;;;;;;4.72;3.45;;;4.50;99.90;;;;;;5054045;28;20454;-58
2022/01/09 03:18:54;;;;;;;5.78;3.20;;;4.50;99.90;;;;;;5054021;28;20033;-59
2022/01/09 03:21:20;;;;;;;3.90;3.30;;;4.50;99.90;;;;;;5053479;28;20074;-58
2022/01/09 03:23:45;;;;;;;5.95;3.33;;;4.40;99.90;;;;;;5053654;28;20083;-59
2022/01/09 03:26:11;;;;;;;4.10;3.35;;;4.50;99.90;;;;;;5053388;28;20021;-59
2022/01/09 03:28:36;;;;;;;3.95;3.42;;;4.50;99.90;;;;;;5054177;28;20099;-58
2022/01/09 03:31:02;;;;;;;3.40;2.92;;;4.40;99.90;;;;;;5053514;28;20100;-58
2022/01/09 03:33:28;;;;;;;3.95;3.55;;;4.40;99.90;;;;;;5053192;28;20048;-58
2022/01/09 03:35:53;;;;;;;3.75;3.25;;;4.40;99.90;;;;;;5053375;28;20032;-58
2022/01/09 03:38:19;;;;;;;4.07;3.65;;;4.40;99.90;;;;;;5053404;28;20025;-58
2022/01/09 03:40:44;;;;;;;5.93;3.72;;;4.40;99.90;;;;;;5053540;28;20068;-58
2022/01/09 03:43:10;;;;;;;3.78;3.40;;;4.40;99.90;;;;;;5053448;28;20021;-58
2022/01/09 03:45:36;;;;;;;4.38;3.30;;;4.50;99.90;;;;;;5053339;28;20029;-57
2022/01/09 03:48:01;;;;;;;5.25;3.55;;;4.50;99.90;;;;;;5052575;28;20079;-56
2022/01/09 03:50:27;;;;;;;5.30;4.35;;;4.50;99.90;;;;;;5052234;28;20025;-54
2022/01/09 03:52:53;;;;;;;4.95;3.67;;;4.40;99.90;;;;;;5053388;28;20029;-58
2022/01/09 03:55:22;;;;;;;4.90;3.13;;;4.50;99.90;;;;;;5053118;28;20529;-57
2022/01/09 03:57:48;;;;;;;3.42;3.00;;;4.40;99.90;;;;;;5053323;28;20044;-57
2022/01/09 04:00:20;;;;;;;4.93;3.67;;;4.50;99.90;;;;;;5052983;28;20115;-57
2022/01/09 04:02:48;;;;;;;4.07;3.55;;;4.50;99.90;;;;;;5053597;28;20025;-57
2022/01/09 04:05:14;;;;;;;3.50;3.00;;;4.50;99.90;;;;;;5053115;28;20029;-58
2022/01/09 04:07:40;;;;;;;3.92;3.13;;;4.40;99.90;;;;;;5057198;28;20059;-57
2022/01/09 04:10:07;;;;;;;5.45;3.70;;;4.50;99.90;;;;;;5057123;28;20021;-57
2022/01/09 04:12:36;;;;;;;4.45;3.80;;;4.40;99.90;;;;;;5056958;28;20060;-57
2022/01/09 04:15:06;;;;;;;4.43;3.88;;;4.40;99.90;;;;;;5056758;28;20037;-58
2022/01/09 04:17:43;;;;;;;4.93;4.15;;;4.40;99.90;;;;;;5056786;28;20023;-58
2022/01/09 04:20:09;;;;;;;3.83;3.42;;;4.40;99.90;;;;;;5056914;28;20504;-56
2022/01/09 04:22:35;;;;;;;4.18;3.72;;;4.40;99.90;;;;;;5055269;28;20032;-56
2022/01/09 04:25:01;;;;;;;4.07;3.67;;;4.40;99.90;;;;;;5056389;28;20032;-58
2022/01/09 04:27:26;;;;;;;4.40;4.00;;;4.40;99.90;;;;;;5056250;28;20024;-57
2022/01/09 04:29:52;;;;;;;8.40;4.07;;;4.30;99.90;;;;;;5057048;28;20107;-56
2022/01/09 04:32:18;;;;;;;4.88;3.90;;;4.30;99.90;;;;;;5056250;28;20025;-57
2022/01/09 04:34:43;;;;;;;4.97;4.20;;;4.30;99.90;;;;;;5056398;28;20052;-58
2022/01/09 04:37:09;;;;;;;6.60;4.20;;;4.30;99.90;;;;;;5056553;28;20025;-57
2022/01/09 04:39:34;;;;;;;5.55;4.40;;;4.30;99.90;;;;;;5056393;28;20069;-58
2022/01/09 04:42:00;;;;;;;3.88;3.47;;;4.30;99.90;;;;;;5055944;28;20064;-57
2022/01/09 04:44:25;;;;;;;5.05;3.70;;;4.30;99.90;;;;;;5054854;28;20028;-58
2022/01/09 04:47:03;;;;;;;4.18;3.75;;;4.20;99.90;;;;;;5056040;28;20053;-58
2022/01/09 04:49:35;;;;;;;5.18;3.97;;;4.20;99.90;;;;;;5055148;28;20049;-57
2022/01/09 04:52:03;;;;;;;4.55;3.60;;;4.20;99.90;;;;;;5055800;28;20037;-57
2022/01/09 04:54:28;;;;;;;5.18;4.40;;;4.20;99.90;;;;;;5056424;28;20025;-57
2022/01/09 04:56:54;;;;;;;5.35;4.20;;;4.20;99.90;;;;;;5056022;28;20021;-56
2022/01/09 04:59:20;;;;;;;4.88;3.83;;;4.10;99.90;;;;;;5054379;28;20478;-56
2022/01/09 05:01:45;;;;;;;4.85;4.00;;;4.10;99.90;;;;;;5055806;28;20029;-55
2022/01/09 05:04:11;;;;;;;6.20;4.65;;;4.10;99.90;;;;;;5055927;28;20036;-58
2022/01/09 05:06:37;;;;;;;4.97;4.45;;;4.00;99.90;;;;;;5055892;28;20110;-58
2022/01/09 05:09:02;;;;;;;5.07;4.30;;;4.00;99.90;;;;;;5055779;28;20025;-58
2022/01/09 05:11:28;;;;;;;4.90;4.43;;;4.00;99.90;;;;;;5055797;28;20021;-57
2022/01/09 05:13:53;;;;;;;5.25;4.50;;;4.10;99.90;;;;;;5055545;28;20466;-56
2022/01/09 05:16:19;;;;;;;4.47;4.05;;;4.10;99.90;;;;;;5054599;28;20025;-58
2022/01/09 05:19:01;;;;;;;4.88;4.25;;;4.10;99.90;;;;;;5055374;28;20035;-56
2022/01/09 05:21:26;;;;;;;5.20;4.40;;;4.10;99.90;;;;;;5055589;28;20025;-58
2022/01/09 05:23:52;;;;;;;6.03;4.55;;;4.10;99.90;;;;;;5055420;28;20043;-57
2022/01/09 05:26:17;;;;;;;6.13;4.90;;;4.10;99.90;;;;;;5055235;28;20079;-56
2022/01/09 05:28:43;;;;;;;5.40;4.90;;;4.10;99.90;;;;;;5054925;28;20482;-57
2022/01/09 05:31:09;;;;;;;5.18;4.40;;;4.00;99.90;;;;;;5055404;28;20017;-58
2022/01/09 05:33:35;;;;;;;5.38;4.50;;;4.00;99.90;;;;;;5055496;28;20021;-58
2022/01/09 05:36:01;;;;;;;6.10;4.50;;;4.00;99.90;;;;;;5055243;28;20025;-56
2022/01/09 05:38:26;;;;;;;4.75;4.25;;;4.00;99.90;;;;;;5055038;28;20017;-57
2022/01/09 05:40:52;;;;;;;5.10;4.35;;;4.00;99.90;;;;;;5054070;28;20426;-57
2022/01/09 05:43:18;;;;;;;6.95;4.50;;;4.00;99.90;;;;;;5053818;28;20013;-54
2022/01/09 05:45:44;;;;;;;5.07;4.40;;;4.00;99.90;;;;;;5055144;28;20029;-56
2022/01/09 05:48:10;;;;;;;5.35;4.10;;;4.00;99.90;;;;;;5055160;28;20028;-57
2022/01/09 05:50:36;;;;;;;4.10;3.67;;;3.90;99.90;;;;;;5054668;28;20017;-58
2022/01/09 05:53:01;;;;;;;4.18;3.72;;;3.80;99.90;;;;;;5055203;28;20060;-58
2022/01/09 05:55:28;;;;;;;3.85;3.45;;;3.70;99.90;;;;;;5054819;28;20083;-55
2022/01/09 05:57:53;;;;;;;5.53;4.18;;;3.70;99.90;;;;;;5054926;28;20036;-58
2022/01/09 06:00:19;;;;;;;5.15;3.95;;;3.60;99.90;;;;;;5055105;28;20025;-56
2022/01/09 06:02:44;;;;;;;4.72;4.22;;;3.60;99.90;;;;;;5054652;28;20040;-57
2022/01/09 06:05:10;;;;;;;4.40;3.67;;;3.60;99.90;;;;;;5054765;28;20435;-59
2022/01/09 06:07:42;;;;;;;5.45;4.40;;;3.60;99.90;;;;;;5054777;28;20103;-56
2022/01/09 06:10:09;;;;;;;6.25;4.85;;;3.60;99.90;;;;;;5055015;28;20482;-59
2022/01/09 06:12:35;;;;;;;4.60;4.18;;;3.50;99.90;;;;;;5054783;28;20115;-58
2022/01/09 06:15:00;;;;;;;5.47;4.35;;;3.60;99.90;;;;;;5055069;28;20061;-59
2022/01/09 06:17:26;;;;;;;5.55;4.75;;;3.50;99.90;;;;;;5055290;28;20029;-57
2022/01/09 06:19:52;;;;;;;6.82;5.07;;;3.50;99.90;;;;;;5055621;28;20025;-57
2022/01/09 06:22:18;;;;;;;6.03;5.00;;;3.40;99.90;;;;;;5055010;28;20203;-57
2022/01/09 06:24:47;;;;;;;6.93;5.70;;;3.50;99.90;;;;;;5054681;28;20486;-57
2022/01/09 06:27:14;;;;;;;6.28;5.47;;;3.50;99.90;;;;;;5054625;28;20094;-58
2022/01/09 06:29:39;;;;;;;6.68;5.22;;;3.50;99.90;;;;;;5054537;28;20071;-57
2022/01/09 06:32:06;;;;;;;7.60;5.30;;;3.50;99.90;;;;;;5054597;28;20025;-58
2022/01/09 06:34:32;;;;;;;6.47;4.95;;;3.50;99.90;;;;;;5054606;28;20025;-59
2022/01/09 06:36:57;;;;;;;8.60;5.78;;;3.50;99.90;;;;;;5054716;28;20053;-58
2022/01/09 06:39:23;;;;;;;7.30;5.25;;;3.50;99.90;;;;;;5054466;28;20048;-58
2022/01/09 06:41:49;;;;;;;9.82;5.60;;;3.40;99.90;;;;;;5054357;28;20021;-56
2022/01/09 06:44:15;;;;;;;7.57;5.80;;;3.40;99.90;;;;;;5054305;28;20059;-57
2022/01/09 06:46:42;;;;;;;7.47;5.80;;;3.40;99.90;;;;;;5054212;28;20025;-58
2022/01/09 06:49:07;;;;;;;7.97;5.63;;;3.40;99.90;;;;;;5054339;28;20102;-58
2022/01/09 06:51:33;;;;;;;7.30;5.85;;;3.40;99.90;;;;;;5053961;28;20041;-58
2022/01/09 06:53:58;;;;;;;8.13;6.53;;;3.30;99.90;;;;;;5052377;28;20074;-59
2022/01/09 06:56:24;;;;;;;7.68;5.97;;;3.40;99.90;;;;;;5053629;28;20481;-58
2022/01/09 06:58:49;;;;;;;8.38;6.05;;;3.40;99.90;;;;;;5053845;28;20041;-59
2022/01/09 07:01:15;;;;;;;7.90;5.78;;;3.50;99.90;;;;;;5053872;28;20053;-58
2022/01/09 07:03:40;;;;;;;7.63;5.70;;;3.50;99.90;;;;;;5053298;28;20029;-59
2022/01/09 07:06:06;;;;;;;8.32;6.10;;;3.50;99.90;;;;;;5053448;28;20067;-59
2022/01/09 07:08:33;;;;;;;8.68;6.05;;;3.50;99.90;;;;;;5053499;28;20025;-58
2022/01/09 07:11:00;;;;;;;9.90;6.25;;;3.50;99.90;;;;;;5053672;28;20017;-59
2022/01/09 07:13:26;;;;;;;8.32;6.35;;;3.50;99.90;;;;;;5053120;28;20022;-58
2022/01/09 07:15:51;;;;;;;8.65;5.97;;;3.50;99.90;;;;;;5053898;28;20033;-58
2022/01/09 07:18:17;;;;;;;8.85;6.03;;;3.50;99.90;;;;;;5053308;28;20029;-56
2022/01/09 07:20:43;;;;;;;9.73;7.03;;;3.40;99.90;;;;;;5053255;28;20048;-57
2022/01/09 07:23:08;;;;;;;9.20;6.68;;;3.50;99.90;;;;;;5052870;28;20040;-56
2022/01/09 07:25:34;;;;;;;10.30;7.30;;;3.50;99.90;;;;;;5053318;28;20025;-58
2022/01/09 07:28:01;;;;;;;9.77;6.60;;;3.50;99.90;;;;;;5053260;28;20021;-59
2022/01/09 07:30:27;;;;;;;10.77;7.07;;;3.50;99.90;;;;;;5053951;28;20079;-59
2022/01/09 07:32:54;;;;;;;12.13;7.70;;;3.50;99.90;;;;;;5055183;28;20064;-57
2022/01/09 07:35:19;;;;;;;9.38;6.90;;;3.50;99.90;;;;;;5054231;28;20396;-58
2022/01/09 07:37:45;;;;;;;13.38;7.72;;;3.50;99.90;;;;;;5054387;28;20029;-58
2022/01/09 07:40:11;;;;;;;10.85;7.10;;;3.50;99.90;;;;;;5053354;28;20478;-58
2022/01/09 07:42:37;;;;;;;12.25;7.50;;;3.50;99.90;;;;;;5054019;28;20032;-58
2022/01/09 07:45:06;;;;;;;11.32;7.90;;;3.50;99.90;;;;;;5053633;28;20029;-56
2022/01/09 07:47:33;;;;;;;13.77;8.18;;;3.60;99.90;;;;;;5053503;28;20099;-59
2022/01/09 07:49:58;;;;;;;13.80;8.20;;;3.50;99.90;;;;;;5054187;28;20497;-57
2022/01/09 07:52:24;;;;;;;14.50;9.43;;;3.50;99.90;;;;;;5077868;22;20041;-50
2022/01/09 07:54:50;;;;;;;16.55;9.98;;;3.50;99.90;;;;;;5071927;28;20495;-54
2022/01/09 07:57:15;;;;;;;15.15;9.55;;;3.60;99.90;;;;;;5071888;28;20473;-53
2022/01/09 07:59:41;;;;;;;18.25;9.80;;;3.60;99.90;;;;;;5053940;28;20120;-50
2022/01/09 08:02:07;;;;;;;19.80;10.88;;;3.50;99.90;;;;;;5072430;28;20039;-54
2022/01/09 08:04:32;;;;;;;18.27;10.88;;;3.60;99.90;;;;;;5071788;28;20032;-51
2022/01/09 08:06:58;;;;;;;20.00;10.38;;;3.70;99.90;;;;;;5071788;28;20017;-56
2022/01/09 08:09:24;;;;;;;20.58;10.30;;;3.80;99.90;;;;;;5072136;28;20020;-53
2022/01/09 08:11:49;;;;;;;17.63;10.45;;;3.80;99.90;;;;;;5071990;28;20059;-52
2022/01/09 08:14:15;;;;;;;21.60;11.13;;;3.80;99.90;;;;;;5072215;28;20530;-53
2022/01/09 08:16:40;;;;;;;20.95;10.35;;;3.80;99.90;;;;;;5071915;28;20024;-52
2022/01/09 08:19:06;;;;;;;22.92;10.95;;;3.90;99.90;;;;;;5072211;28;20495;-55
2022/01/09 08:21:31;;;;;;;23.90;12.00;;;4.00;99.90;;;;;;5054433;28;20059;-53
2022/01/09 08:23:57;;;;;;;22.13;12.20;;;4.10;99.90;;;;;;5072306;28;20521;-54
2022/01/09 08:26:23;;;;;;;20.30;10.65;;;4.10;99.90;;;;;;5072013;28;20418;-53
2022/01/09 08:28:48;;;;;;;22.70;11.27;;;4.20;99.90;;;;;;5072274;28;20466;-51
2022/01/09 08:31:15;;;;;;;23.25;11.60;;;4.20;99.90;;;;;;5072498;28;20051;-52
2022/01/09 08:33:41;;;;;;;22.50;12.38;;;4.20;99.90;;;;;;5072031;28;20032;-55
2022/01/09 08:36:07;;;;;;;20.65;10.80;;;4.20;99.90;;;;;;5072087;28;20513;-51
2022/01/09 08:38:32;;;;;;;24.05;10.48;;;4.20;99.90;;;;;;5071733;28;20369;-52
2022/01/09 08:40:58;;;;;;;21.05;10.00;;;4.30;99.90;;;;;;5071834;28;20171;-53
2022/01/09 08:43:24;;;;;;;19.80;8.68;;;4.40;99.90;;;;;;5071854;28;20020;-53
2022/01/09 08:45:50;;;;;;;21.13;7.45;;;4.40;99.90;;;;;;5072216;28;20024;-53
2022/01/09 08:48:15;;;;;;;21.85;6.47;;;4.50;99.90;;;;;;5072456;28;20467;-55
2022/01/09 08:50:41;;;;;;;18.33;7.05;;;4.60;99.90;;;;;;5072225;28;20020;-54
2022/01/09 08:53:07;;;;;;;20.73;6.47;;;4.60;99.90;;;;;;5075298;28;20044;-51
2022/01/09 08:55:32;;;;;;;21.73;5.32;;;4.70;99.90;;;;;;5075378;28;20132;-54
2022/01/09 08:57:58;;;;;;;17.20;6.13;;;4.80;99.90;;;;;;5075330;28;20445;-50
2022/01/09 09:00:25;;;;;;;17.30;4.78;;;4.90;99.90;;;;;;5075138;28;20052;-53
2022/01/09 09:02:51;;;;;;;14.43;4.30;;;4.90;99.90;;;;;;5075272;28;20047;-51
2022/01/09 09:05:18;;;;;;;12.30;3.70;;;5.00;99.90;;;;;;5075291;28;20032;-57
2022/01/09 09:07:43;;;;;;;18.67;4.05;;;5.00;99.90;;;;;;5075235;28;20173;-55
2022/01/09 09:10:10;;;;;;;13.82;3.55;;;5.10;99.90;;;;;;5075058;28;20445;-54
2022/01/09 09:12:35;;;;;;;12.95;3.15;;;5.20;99.90;;;;;;5075354;28;20020;-54
2022/01/09 09:15:03;;;;;;;14.70;2.83;;;5.20;99.90;;;;;;5075081;28;20046;-57
2022/01/09 09:17:30;;;;;;;12.82;3.20;;;5.20;99.90;;;;;;5074935;28;20024;-57
2022/01/09 09:19:56;;;;;;;17.10;4.03;;;5.30;99.90;;;;;;5075090;28;20392;-58
2022/01/09 09:22:23;;;;;;;16.92;2.72;;;5.30;99.90;;;;;;5074865;28;20134;-57
2022/01/09 09:24:49;;;;;;;19.90;3.03;;;5.30;99.90;;;;;;5074527;28;20021;-52
2022/01/09 09:27:15;;;;;;;15.60;3.25;;;5.30;99.90;;;;;;5075233;28;20031;-57
2022/01/09 09:29:41;;;;;;;22.63;3.72;;;5.40;99.90;;;;;;5074802;28;20028;-55
2022/01/09 09:32:07;;;;;;;19.20;3.85;;;5.40;99.90;;;;;;5074544;28;20028;-55
2022/01/09 09:34:34;;;;;;;15.43;3.40;;;5.50;99.90;;;;;;5074452;28;20103;-55
2022/01/09 09:37:00;;;;;;;20.58;3.80;;;5.50;99.90;;;;;;5074492;28;20096;-56
2022/01/09 09:39:25;;;;;;;22.80;3.50;;;5.50;99.90;;;;;;5056316;28;20028;-57
2022/01/09 09:41:51;;;;;;;16.05;2.75;;;5.50;99.90;;;;;;5074277;28;20070;-56
2022/01/09 09:44:17;;;;;;;19.08;2.85;;;5.60;99.90;;;;;;5074665;28;20358;-55
2022/01/09 09:46:49;;;;;;;13.10;2.70;;;5.60;99.90;;;;;;5074644;28;20451;-55
2022/01/09 09:49:15;;;;;;;14.07;3.45;;;5.60;99.90;;;;;;5074209;28;20044;-56
2022/01/09 09:51:41;;;;;;;17.95;2.95;;;5.70;99.90;;;;;;5073772;28;20029;-53
2022/01/09 09:54:07;;;;;;;23.38;4.63;;;5.70;99.90;;;;;;5067999;28;20116;-56
2022/01/09 09:56:33;;;;;;;18.92;3.30;;;5.70;99.90;;;;;;5046659;28;20047;-53
2022/01/09 09:59:00;;;;;;;22.40;3.17;;;5.70;99.90;;;;;;5056066;28;20082;-56
2022/01/09 10:01:31;;;;;;;17.38;4.40;;;5.70;99.90;;;;;;5072512;28;20103;-58
2022/01/09 10:03:59;;;;;;;15.52;2.15;;;5.80;99.90;;;;;;5067126;28;20179;-57
2022/01/09 10:06:42;;;;;;;20.02;3.88;;;5.80;99.90;;;;;;5072859;28;20497;-58
2022/01/09 10:09:13;;;;;;;16.13;3.28;;;5.80;99.90;;;;;;5073970;28;20086;-54
2022/01/09 10:11:41;;;;;;;;;;;5.80;99.90;;;;;;5074031;28;20377;-57
2022/01/09 10:14:19;;;;;;;22.90;2.58;;;5.80;99.90;;;;;;5073284;28;19934;-54
2022/01/09 10:17:12;;;;;;;16.88;3.88;;;5.80;99.90;;;;;;5073371;28;20052;-56
2022/01/09 10:19:44;;;;;;;20.65;3.13;;;5.90;99.90;;;;;;5070429;28;20044;-57
2022/01/09 10:22:37;;;;;;;16.20;3.78;;;5.90;99.90;;;;;;5073389;28;20032;-52
2022/01/09 10:25:31;;;;;;;23.40;3.45;;;5.90;99.90;;;;;;5073155;28;20043;-53
2022/01/09 10:28:05;;;;;;;25.33;4.45;;;5.90;99.90;;;;;;5073578;28;20016;-54
2022/01/09 10:30:51;;;;;;;33.95;4.32;;;6.00;99.90;;;;;;5073359;28;20380;-54
2022/01/09 10:33:25;;;;;;;27.42;4.90;;;6.00;99.90;;;;;;5073321;28;20483;-56
2022/01/09 10:35:50;;;;;;;29.02;4.45;;;6.00;99.90;;;;;;5073252;28;20087;-54
2022/01/09 10:38:30;;;;;;;27.65;4.38;;;6.00;99.90;;;;;;5073345;28;20485;-58
2022/01/09 10:40:58;;;;;;;23.73;4.05;;;6.00;99.90;;;;;;5073532;28;20101;-56
2022/01/09 10:43:32;;;;;;;32.40;4.40;;;6.00;99.90;;;;;;5073340;28;20051;-55
2022/01/09 10:45:59;;;;;;;27.92;4.45;;;6.10;99.90;;;;;;5071834;28;20032;-56
2022/01/09 10:48:27;;;;;;;32.45;4.10;;;6.10;99.90;;;;;;5061355;28;20023;-57
2022/01/09 10:50:53;;;;;;;29.13;4.85;;;6.10;99.90;;;;;;5061114;28;20021;-55
2022/01/09 10:53:30;;;;;;;25.75;4.05;;;6.10;99.90;;;;;;5061878;28;20028;-57
2022/01/09 10:56:05;;;;;;;38.60;4.15;;;6.10;99.90;;;;;;5061507;28;20024;-55
2022/01/09 10:58:34;;;;;;;27.27;3.65;;;6.10;99.90;;;;;;5060815;28;20489;-54
2022/01/09 11:01:17;;;;;;;24.25;3.97;;;6.10;99.90;;;;;;5044179;28;20108;-57
2022/01/09 11:03:51;;;;;;;25.08;5.07;;;6.20;99.90;;;;;;5062146;28;20013;-54
2022/01/09 11:06:18;;;;;;;25.10;4.22;;;6.20;99.90;;;;;;5061796;28;20032;-56
2022/01/09 11:08:44;;;;;;;28.63;4.15;;;6.20;99.90;;;;;;5061459;28;20477;-55
2022/01/09 11:11:22;;;;;;;34.25;5.05;;;6.20;99.90;;;;;;5069929;28;20021;-52
2022/01/09 11:13:49;;;;;;;29.67;4.80;;;6.10;99.90;;;;;;5072911;28;20493;-56
2022/01/09 11:16:41;;;;;;;17.08;4.50;;;6.20;99.90;;;;;;5064745;28;20028;-56
2022/01/09 11:19:10;;;;;;;30.48;4.03;;;6.20;99.90;;;;;;5065903;28;20029;-55
2022/01/09 11:21:41;;;;;;;23.48;4.63;;;6.20;99.90;;;;;;5061688;28;20460;-56
2022/01/09 11:24:29;;;;;;;24.20;4.55;;;6.20;99.90;;;;;;5060159;28;20035;-57
2022/01/09 11:27:20;;;;;;;20.83;4.18;;;6.20;99.90;;;;;;5060855;28;20027;-55
2022/01/09 11:30:14;;;;;;;26.20;4.65;;;6.20;99.90;;;;;;5062025;28;20416;-55
2022/01/09 11:33:17;;;;;;;20.40;4.00;;;6.20;99.90;;;;;;5062294;28;20381;-54
2022/01/09 11:36:06;;;;;;;16.90;3.17;;;6.20;99.90;;;;;;5044183;28;20470;-56
2022/01/09 11:38:39;;;;;;;29.58;3.60;;;6.10;99.90;;;;;;5052995;28;20033;-55
2022/01/09 11:41:20;;;;;;;16.75;3.28;;;6.20;99.90;;;;;;5052910;28;20131;-57
2022/01/09 11:44:04;;;;;;;19.85;3.03;;;6.10;99.90;;;;;;5051988;28;20079;-56
2022/01/09 11:46:51;;;;;;;20.50;4.07;;;6.10;99.90;;;;;;5057269;28;20059;-57
2022/01/09 11:49:20;;;;;;;13.60;4.15;;;6.10;99.90;;;;;;5051958;28;20040;-53
2022/01/09 11:51:51;;;;;;;19.73;3.20;;;6.10;99.90;;;;;;5051929;28;20522;-56
2022/01/09 11:54:18;;;;;;;19.52;3.85;;;6.10;99.90;;;;;;5052564;28;20121;-56
2022/01/09 11:56:47;;;;;;;20.20;3.30;;;6.10;99.90;;;;;;5034544;28;20033;-56
2022/01/09 11:59:31;;;;;;;16.30;2.90;;;6.10;99.90;;;;;;5052032;28;20029;-55
2022/01/09 12:02:04;;;;;;;14.38;3.05;;;6.20;99.90;;;;;;5061986;28;20056;-56
2022/01/09 12:04:41;;;;;;;22.75;3.80;;;6.10;99.90;;;;;;5073001;28;20035;-57
2022/01/09 12:07:16;;;;;;;27.10;3.40;;;6.20;99.90;;;;;;5072252;28;20053;-58
2022/01/09 12:09:50;;;;;;;16.40;3.08;;;6.20;99.90;;;;;;5066626;28;20025;-54
2022/01/09 12:12:22;;;;;;;15.02;3.17;;;6.20;99.90;;;;;;5062770;28;20519;-55
2022/01/09 12:14:54;;;;;;;20.90;4.57;;;6.10;99.90;;;;;;5062322;28;20063;-52
2022/01/09 12:17:22;;;;;;;17.88;3.40;;;6.20;99.90;;;;;;5061505;28;20017;-53
2022/01/09 12:20:14;;;;;;;22.27;3.63;;;6.20;99.90;;;;;;5060980;28;20044;-53
2022/01/09 12:25:23;;;;;;;;;;;6.20;99.90;;;;;;5068180;28;20025;-55
2022/01/09 12:28:03;;;;;;;16.63;3.20;;;6.20;99.90;;;;;;5068776;28;19929;-54
2022/01/09 12:30:41;;;;;;;30.00;3.92;;;6.20;99.90;;;;;;5072432;28;20025;-52
2022/01/09 12:33:20;;;;;;;16.33;3.55;;;6.30;99.90;;;;;;5073782;28;20017;-56
2022/01/09 12:35:55;;;;;;;23.25;4.38;;;6.20;99.90;;;;;;5065952;28;20021;-55
2022/01/09 12:38:23;;;;;;;21.73;4.35;;;6.30;99.90;;;;;;5065258;28;20112;-55
2022/01/09 12:40:56;;;;;;;22.95;3.20;;;6.30;99.90;;;;;;5064419;28;20024;-55
2022/01/09 12:43:23;;;;;;;16.55;3.25;;;6.30;99.90;;;;;;5046860;28;20025;-55
2022/01/09 12:45:49;;;;;;;18.45;3.45;;;6.30;99.90;;;;;;5063493;28;20024;-52
2022/01/09 12:48:21;;;;;;;20.00;3.35;;;6.30;99.90;;;;;;5065705;28;20025;-53
2022/01/09 12:50:48;;;;;;;13.20;3.30;;;6.30;99.90;;;;;;5066009;28;20092;-56
2022/01/09 12:53:20;;;;;;;20.80;3.33;;;6.30;99.90;;;;;;5068202;28;20493;-55
2022/01/09 12:56:05;;;;;;;25.90;3.92;;;6.20;99.90;;;;;;5066558;28;20473;-54
2022/01/09 12:58:37;;;;;;;21.42;4.40;;;6.20;99.90;;;;;;5072152;28;20056;-56
2022/01/09 13:01:05;;;;;;;24.02;4.32;;;6.20;99.90;;;;;;5075497;28;20492;-52
2022/01/09 13:03:34;;;;;;;14.57;4.00;;;6.10;99.90;;;;;;5075144;28;20481;-55
2022/01/09 13:06:08;;;;;;;16.48;3.20;;;6.00;99.90;;;;;;5075366;28;20025;-55